Home   Weather   Russia   Volgograd   Past weeks
Flag for Russia

Past Weather in Volgograd, Russia — Yesterday and Last 2 Weeks

Currently: 88 °F. Passing clouds. (Weather station: Volgograd Airport, Russia). See more current weather

Past Weather in Volgograd — Graph

°F

Volgograd Temperature Yesterday

Maximum temperature yesterday: 86 °F (at 3:00 pm)
Minimum temperature yesterday: 70 °F (at 4:00 am)
Average temperature yesterday: 77 °F

High & Low Weather Summary for the Past Weeks

 TemperatureHumidityPressure
High100 °F (Jul 7, 2:00 pm)88% (Jul 20, 4:00 am)30.09 "Hg (Jul 20, 4:00 am)
Low57 °F (Jul 14, 4:30 am)15% (Jul 13, 4:30 pm)29.68 "Hg (Jul 19, 4:30 pm)
Average81 °F39%29.91 "Hg
* Reported Jul 6 6:00 pm — Jul 21 6:00 pm, Volgograd. Weather by CustomWeather, © 2024

Note: Actual official high and low records may vary slightly from our data, if they occured in-between our weather recording intervals... More about our weather records

Volgograd Weather History for the Previous 24 Hours

Scroll right to see more
 ConditionsComfort  
Time TempWeatherWind HumidityBarometerVisibility
6:00 pm
Sun, Jul 21
90 °FPassing clouds.3 mph24%29.77 "HgN/A
5:00 pm88 °FPassing clouds.10 mph25%29.77 "HgN/A
4:00 pm88 °FPassing clouds.8 mph29%29.77 "HgN/A
3:30 pm91 °FPassing clouds.8 mph26%29.77 "HgN/A
3:00 pm90 °FPassing clouds.10 mph26%29.77 "HgN/A
2:30 pm90 °FPassing clouds.10 mph26%29.80 "HgN/A
2:00 pm90 °FPassing clouds.10 mph26%29.80 "HgN/A
1:30 pm88 °FPassing clouds.8 mph29%29.80 "HgN/A
1:00 pm88 °FPassing clouds.10 mph31%29.80 "HgN/A
12:30 pm86 °FPassing clouds.8 mph31%29.80 "HgN/A
12:00 pm88 °FPassing clouds.10 mph31%29.80 "HgN/A
11:00 am84 °FScattered clouds.10 mph33%29.80 "HgN/A
10:00 am82 °FPassing clouds.8 mph37%29.80 "HgN/A
9:30 am82 °FPassing clouds.6 mph40%29.83 "HgN/A
9:00 am81 °FSunny.8 mph39%29.83 "Hg10 mi
8:30 am79 °FPassing clouds.8 mph45%29.83 "HgN/A
8:00 am75 °FSunny.6 mph54%29.83 "Hg10 mi
7:30 am72 °FSunny.6 mph61%29.80 "Hg10 mi
7:00 am68 °FSunny.6 mph69%29.80 "Hg10 mi
6:30 am68 °FSunny.3 mph64%29.80 "Hg10 mi
6:00 am66 °FSunny.3 mph68%29.80 "Hg10 mi
5:30 am64 °FSunny.6 mph73%29.77 "Hg10 mi
5:00 am64 °FSunny.6 mph73%29.77 "Hg10 mi
4:30 am64 °FSunny.3 mph68%29.77 "Hg10 mi
4:00 am64 °FSunny.No wind68%29.77 "Hg10 mi
3:00 am66 °FClear.3 mph68%29.77 "Hg10 mi
2:30 am68 °FClear.6 mph60%29.77 "Hg10 mi
2:00 am66 °FClear.3 mph68%29.77 "Hg10 mi
1:30 am66 °FClear.6 mph68%29.77 "Hg10 mi
1:00 am66 °FClear.6 mph68%29.77 "Hg10 mi
12:30 am68 °FClear.3 mph64%29.77 "Hg10 mi
12:00 am70 °FClear.3 mph57%29.77 "Hg10 mi
10:30 pm
Sat, Jul 20
70 °FClear.6 mph60%29.77 "Hg10 mi
10:00 pm72 °FClear.6 mph57%29.77 "Hg10 mi
9:30 pm73 °FClear.6 mph53%29.77 "Hg10 mi
9:00 pm73 °FClear.6 mph53%29.74 "Hg10 mi
8:30 pm75 °FClear.6 mph50%29.74 "Hg10 mi
8:00 pm77 °FClear.6 mph47%29.74 "Hg10 mi
7:30 pm81 °FClear.8 mph42%29.71 "Hg10 mi
7:00 pm81 °FClear.8 mph42%29.71 "Hg10 mi
Weather by CustomWeather, © 2024

See weather overview